Time;durP1;ratioP1;P1;durP2;ratioP2;P2;SDS_P1;SDS_P2;PMS_P1;PMS_P2;Temp;Humidity;BMP_temperature;BMP_pressure;BME280_temperature;BME280_humidity;BME280_pressure;Samples;Min_cycle;Max_cycle;Signal;HPM_P1;HPM_P2
2022/04/12 00:00:25;;;;;;;7.45;4.57;;;;;;;;;;5037256;28;20029;-84
2022/04/12 00:02:51;;;;;;;11.50;6.20;;;;;;;;;;5022677;28;20028;-83
2022/04/12 00:05:18;;;;;;;9.43;5.50;;;;;;;;;;5025527;28;20022;-83
2022/04/12 00:07:44;;;;;;;10.18;5.80;;;;;;;;;;5018520;28;20050;-84
2022/04/12 00:10:13;;;;;;;9.43;5.43;;;;;;;;;;5016430;28;20033;-83
2022/04/12 00:12:40;;;;;;;9.00;5.25;;;;;;;;;;5052631;28;20032;-84
2022/04/12 00:15:07;;;;;;;8.45;5.43;;;;;;;;;;5056658;28;20017;-84
2022/04/12 00:20:20;;;;;;;10.73;5.32;;;;;;;;;;5037688;28;20044;-83
2022/04/12 00:22:46;;;;;;;9.85;6.30;;;;;;;;;;5036090;28;20029;-84
2022/04/12 00:25:13;;;;;;;10.00;5.45;;;;;;;;;;5036231;28;20037;-83
2022/04/12 00:27:40;;;;;;;10.43;5.68;;;;;;;;;;5036098;28;20029;-83
2022/04/12 00:30:07;;;;;;;9.20;5.55;;;;;;;;;;5051682;28;20398;-84
2022/04/12 00:32:33;;;;;;;9.90;5.47;;;;;;;;;;5035754;28;20073;-84
2022/04/12 00:34:59;;;;;;;10.82;5.95;;;;;;;;;;5025102;28;20022;-84
2022/04/12 00:37:26;;;;;;;8.90;5.10;;;;;;;;;;5033977;28;20032;-84
2022/04/12 00:39:52;;;;;;;9.73;5.43;;;;;;;;;;5043779;28;20065;-84
2022/04/12 00:42:18;;;;;;;10.13;5.63;;;;;;;;;;5035654;28;20036;-84
2022/04/12 00:44:44;;;;;;;11.80;6.03;;;;;;;;;;5037102;28;20522;-83
2022/04/12 00:47:10;;;;;;;10.82;6.32;;;;;;;;;;5029840;28;20499;-84
2022/04/12 00:49:36;;;;;;;10.13;5.53;;;;;;;;;;5034920;28;20163;-83
2022/04/12 00:52:03;;;;;;;9.90;5.97;;;;;;;;;;5028350;28;20040;-83
2022/04/12 00:54:30;;;;;;;9.07;5.53;;;;;;;;;;5035267;28;20048;-84
2022/04/12 00:56:56;;;;;;;10.23;6.00;;;;;;;;;;5040392;28;20025;-84
2022/04/12 00:59:23;;;;;;;10.88;5.80;;;;;;;;;;5053353;28;20028;-84
2022/04/12 01:01:49;;;;;;;9.32;5.75;;;;;;;;;;5028191;28;20022;-84
2022/04/12 01:04:15;;;;;;;9.32;5.85;;;;;;;;;;5025851;28;20022;-83
2022/04/12 01:06:42;;;;;;;8.90;5.40;;;;;;;;;;5019819;28;20101;-84
2022/04/12 01:09:09;;;;;;;10.02;5.70;;;;;;;;;;5054295;28;20025;-83
2022/04/12 01:11:36;;;;;;;8.93;5.57;;;;;;;;;;5047699;28;20075;-82
2022/04/12 01:14:02;;;;;;;11.68;6.28;;;;;;;;;;5034754;28;20424;-83
2022/04/12 01:16:29;;;;;;;9.60;5.43;;;;;;;;;;5028130;28;20403;-84
2022/04/12 01:18:55;;;;;;;10.25;5.47;;;;;;;;;;5014885;28;20484;-83
2022/04/12 01:21:21;;;;;;;10.82;5.80;;;;;;;;;;5019443;28;20025;-84
2022/04/12 01:24:00;;;;;;;10.00;5.38;;;;;;;;;;5050768;28;20029;-84
2022/04/12 01:26:26;;;;;;;10.45;5.60;;;;;;;;;;5041210;28;20033;-84
2022/04/12 01:28:52;;;;;;;11.38;5.95;;;;;;;;;;5034927;28;20029;-84
2022/04/12 01:31:18;;;;;;;8.98;5.60;;;;;;;;;;5033402;28;20030;-84
2022/04/12 01:33:44;;;;;;;9.98;5.97;;;;;;;;;;5036536;28;20552;-82
2022/04/12 01:36:10;;;;;;;9.35;5.28;;;;;;;;;;5036943;28;20025;-83
2022/04/12 01:38:36;;;;;;;8.75;5.63;;;;;;;;;;5036261;28;20030;-83
2022/04/12 01:41:02;;;;;;;8.60;5.50;;;;;;;;;;5041999;28;20490;-82
2022/04/12 01:43:28;;;;;;;10.13;5.93;;;;;;;;;;5034652;28;20475;-83
2022/04/12 01:45:54;;;;;;;9.07;5.32;;;;;;;;;;5033745;28;20030;-83
2022/04/12 01:48:20;;;;;;;8.13;5.13;;;;;;;;;;5045300;28;20028;-84
2022/04/12 01:50:48;;;;;;;8.93;5.60;;;;;;;;;;5037240;28;20037;-83
2022/04/12 01:53:14;;;;;;;9.27;5.45;;;;;;;;;;5039933;28;20017;-82
2022/04/12 01:55:40;;;;;;;8.30;5.55;;;;;;;;;;5042139;28;20096;-84
2022/04/12 01:58:06;;;;;;;12.57;5.80;;;;;;;;;;5033539;28;20029;-84
2022/04/12 02:00:32;;;;;;;10.27;5.65;;;;;;;;;;5046937;28;20033;-84
2022/04/12 02:03:00;;;;;;;9.60;5.60;;;;;;;;;;5034857;28;20063;-84
2022/04/12 02:05:26;;;;;;;10.93;5.95;;;;;;;;;;5041167;28;20339;-83
2022/04/12 02:07:52;;;;;;;8.73;5.10;;;;;;;;;;5046505;28;20053;-84
2022/04/12 02:10:21;;;;;;;10.80;5.57;;;;;;;;;;5032760;28;20030;-84
2022/04/12 02:12:47;;;;;;;9.77;6.07;;;;;;;;;;5033262;28;20024;-84
2022/04/12 02:15:13;;;;;;;10.13;5.43;;;;;;;;;;5032655;28;20025;-83
2022/04/12 02:17:39;;;;;;;9.50;5.50;;;;;;;;;;5049006;28;20068;-83
2022/04/12 02:20:05;;;;;;;11.27;5.63;;;;;;;;;;5053682;28;20033;-83
2022/04/12 02:22:31;;;;;;;9.93;5.53;;;;;;;;;;5036297;28;20029;-84
2022/04/12 02:24:57;;;;;;;9.60;6.30;;;;;;;;;;5032021;28;20029;-83
2022/04/12 02:27:23;;;;;;;11.23;5.80;;;;;;;;;;5038462;28;20025;-84
2022/04/12 02:29:49;;;;;;;8.70;5.03;;;;;;;;;;5047522;28;20025;-83
2022/04/12 02:32:18;;;;;;;12.27;6.15;;;;;;;;;;5030957;28;20625;-83
2022/04/12 02:34:44;;;;;;;10.73;5.80;;;;;;;;;;5012882;28;20499;-83
2022/04/12 02:37:10;;;;;;;10.40;6.40;;;;;;;;;;5034477;28;20021;-83
2022/04/12 02:39:36;;;;;;;10.52;6.10;;;;;;;;;;5037608;28;20515;-84
2022/04/12 02:42:02;;;;;;;9.32;5.70;;;;;;;;;;5035713;28;20384;-83
2022/04/12 02:44:28;;;;;;;10.45;6.38;;;;;;;;;;5022634;28;20025;-82
2022/04/12 02:46:54;;;;;;;11.30;5.70;;;;;;;;;;5022610;28;20065;-82
2022/04/12 02:49:21;;;;;;;9.80;5.78;;;;;;;;;;5022136;28;20411;-83
2022/04/12 02:51:47;;;;;;;10.15;5.78;;;;;;;;;;5034787;28;20506;-83
2022/04/12 02:54:14;;;;;;;9.77;6.00;;;;;;;;;;5038038;28;20026;-82
2022/04/12 02:56:40;;;;;;;14.98;5.88;;;;;;;;;;5035406;28;20032;-83
2022/04/12 02:59:06;;;;;;;10.38;5.82;;;;;;;;;;5055794;28;20025;-84
2022/04/12 03:01:34;;;;;;;9.07;5.60;;;;;;;;;;5049620;28;20114;-84
2022/04/12 03:04:00;;;;;;;11.93;6.88;;;;;;;;;;5036473;28;20021;-84
2022/04/12 03:06:26;;;;;;;8.65;6.03;;;;;;;;;;5035976;28;20068;-84
2022/04/12 03:08:52;;;;;;;15.57;6.78;;;;;;;;;;5044273;28;20052;-84
2022/04/12 03:11:18;;;;;;;15.15;6.78;;;;;;;;;;5024795;28;20742;-84
2022/04/12 03:13:44;;;;;;;13.32;6.63;;;;;;;;;;5033559;28;20033;-83
2022/04/12 03:16:10;;;;;;;14.15;6.68;;;;;;;;;;5032989;28;20029;-83
2022/04/12 03:18:36;;;;;;;10.88;6.40;;;;;;;;;;5033262;28;20080;-84
2022/04/12 03:21:02;;;;;;;11.32;6.82;;;;;;;;;;5033868;28;20033;-83
2022/04/12 03:23:28;;;;;;;10.00;5.88;;;;;;;;;;5029794;28;20059;-83
2022/04/12 03:25:54;;;;;;;11.48;7.20;;;;;;;;;;5031602;28;20041;-84
2022/04/12 03:28:20;;;;;;;12.25;6.43;;;;;;;;;;5031494;28;20686;-84
2022/04/12 03:30:47;;;;;;;12.38;6.97;;;;;;;;;;5046647;28;20029;-84
2022/04/12 03:33:13;;;;;;;9.63;5.93;;;;;;;;;;5040297;28;20036;-84
2022/04/12 03:35:39;;;;;;;11.30;6.40;;;;;;;;;;5037306;28;20039;-83
2022/04/12 03:38:05;;;;;;;10.15;6.43;;;;;;;;;;5036419;28;20034;-84
2022/04/12 03:40:32;;;;;;;11.63;6.72;;;;;;;;;;5046769;28;20025;-83
2022/04/12 03:43:01;;;;;;;12.55;7.07;;;;;;;;;;5019865;28;20087;-82
2022/04/12 03:45:28;;;;;;;11.77;6.55;;;;;;;;;;5026123;28;20262;-84
2022/04/12 03:47:54;;;;;;;12.20;6.95;;;;;;;;;;5056051;28;20637;-84
2022/04/12 03:50:20;;;;;;;11.90;6.15;;;;;;;;;;5049717;28;20021;-83
2022/04/12 03:52:46;;;;;;;11.02;7.00;;;;;;;;;;5043099;28;20025;-84
2022/04/12 03:55:12;;;;;;;11.55;6.35;;;;;;;;;;5040386;28;20444;-84
2022/04/12 03:57:38;;;;;;;10.68;6.40;;;;;;;;;;5035319;28;20030;-83
2022/04/12 04:00:09;;;;;;;10.35;6.10;;;;;;;;;;5037552;28;20053;-83
2022/04/12 04:02:35;;;;;;;12.52;6.80;;;;;;;;;;5028669;28;20483;-82
2022/04/12 04:05:01;;;;;;;11.45;6.88;;;;;;;;;;5039750;28;20111;-83
2022/04/12 04:07:27;;;;;;;11.45;6.47;;;;;;;;;;5034582;28;20038;-84
2022/04/12 04:09:54;;;;;;;10.15;5.93;;;;;;;;;;5036733;28;20037;-83
2022/04/12 04:12:20;;;;;;;11.25;6.50;;;;;;;;;;5037333;28;20092;-83
2022/04/12 04:14:47;;;;;;;12.20;6.72;;;;;;;;;;5045671;28;20021;-84
2022/04/12 04:17:13;;;;;;;13.65;6.53;;;;;;;;;;5037473;28;20028;-84
2022/04/12 04:19:39;;;;;;;12.30;6.50;;;;;;;;;;5035458;28;20099;-84
2022/04/12 04:22:05;;;;;;;11.85;7.00;;;;;;;;;;5033278;28;20084;-84
2022/04/12 04:24:32;;;;;;;12.23;7.85;;;;;;;;;;5036609;28;20028;-83
2022/04/12 04:26:58;;;;;;;13.23;6.97;;;;;;;;;;5043190;28;20066;-83
2022/04/12 04:29:27;;;;;;;12.07;6.47;;;;;;;;;;5015848;28;20018;-84
2022/04/12 04:31:53;;;;;;;15.32;8.25;;;;;;;;;;5015749;28;20502;-84
2022/04/12 04:34:19;;;;;;;10.77;6.78;;;;;;;;;;5016078;28;20018;-84
2022/04/12 04:36:45;;;;;;;14.60;7.72;;;;;;;;;;5017977;28;20032;-84
2022/04/12 04:39:11;;;;;;;11.30;6.60;;;;;;;;;;5017605;28;20403;-84
2022/04/12 04:41:37;;;;;;;12.40;6.93;;;;;;;;;;5017481;28;20034;-85
2022/04/12 04:44:03;;;;;;;12.95;7.28;;;;;;;;;;5027273;28;20049;-83
2022/04/12 04:46:29;;;;;;;14.27;7.00;;;;;;;;;;5022102;28;20061;-85
2022/04/12 04:48:55;;;;;;;14.40;7.32;;;;;;;;;;5027938;28;20029;-84
2022/04/12 04:51:21;;;;;;;14.63;7.70;;;;;;;;;;5016711;28;20089;-85
2022/04/12 04:53:56;;;;;;;11.35;6.20;;;;;;;;;;5034167;28;20022;-84
2022/04/12 04:56:22;;;;;;;10.48;6.53;;;;;;;;;;5027368;28;20022;-84
2022/04/12 04:58:48;;;;;;;11.20;6.95;;;;;;;;;;5018785;28;20105;-84
2022/04/12 05:01:14;;;;;;;12.30;7.05;;;;;;;;;;5021931;28;20045;-84
2022/04/12 05:03:40;;;;;;;13.07;6.72;;;;;;;;;;5026826;28;20037;-84
2022/04/12 05:06:06;;;;;;;13.38;7.55;;;;;;;;;;5036078;28;20025;-82
2022/04/12 05:08:32;;;;;;;12.25;6.88;;;;;;;;;;5045038;28;20055;-83
2022/04/12 05:10:58;;;;;;;12.82;7.40;;;;;;;;;;5036345;28;20109;-83
2022/04/12 05:13:24;;;;;;;10.52;6.50;;;;;;;;;;5050682;28;20056;-83
2022/04/12 05:15:50;;;;;;;10.57;6.47;;;;;;;;;;5056133;28;20100;-84
2022/04/12 05:18:16;;;;;;;12.52;7.38;;;;;;;;;;5052028;28;20064;-83
2022/04/12 05:20:43;;;;;;;12.32;6.90;;;;;;;;;;5048785;28;20073;-84
2022/04/12 05:23:09;;;;;;;11.02;6.65;;;;;;;;;;5042936;28;20142;-83
2022/04/12 05:25:35;;;;;;;9.95;6.35;;;;;;;;;;5046414;28;20429;-83
2022/04/12 05:28:01;;;;;;;13.48;7.60;;;;;;;;;;5046934;28;20110;-83
2022/04/12 05:30:27;;;;;;;14.40;7.65;;;;;;;;;;5045934;28;20038;-83
2022/04/12 05:32:53;;;;;;;10.90;7.07;;;;;;;;;;5047172;28;20018;-83
2022/04/12 05:35:19;;;;;;;11.20;7.07;;;;;;;;;;5041513;28;20032;-83
2022/04/12 05:37:47;;;;;;;10.95;7.35;;;;;;;;;;5037288;28;20018;-83
2022/04/12 05:40:13;;;;;;;11.00;6.47;;;;;;;;;;5035208;28;20383;-83
2022/04/12 05:42:39;;;;;;;12.45;6.82;;;;;;;;;;5036569;28;20025;-83
2022/04/12 05:45:09;;;;;;;13.13;7.75;;;;;;;;;;5022263;28;20080;-83
2022/04/12 05:47:45;;;;;;;12.57;7.07;;;;;;;;;;5037807;28;20051;-84
2022/04/12 05:50:12;;;;;;;13.82;7.63;;;;;;;;;;5055468;28;20037;-83
2022/04/12 05:52:41;;;;;;;16.10;7.80;;;;;;;;;;5038555;28;20025;-83
2022/04/12 05:55:11;;;;;;;12.00;7.15;;;;;;;;;;5032798;28;20045;-83
2022/04/12 05:57:48;;;;;;;13.65;8.05;;;;;;;;;;5031480;28;20055;-83
2022/04/12 06:00:14;;;;;;;15.95;8.50;;;;;;;;;;5018095;28;20026;-83
2022/04/12 06:02:40;;;;;;;17.05;9.15;;;;;;;;;;5033828;28;20025;-84
2022/04/12 06:05:06;;;;;;;17.63;8.25;;;;;;;;;;5054016;28;20025;-85
2022/04/12 06:07:34;;;;;;;14.85;7.43;;;;;;;;;;5054202;28;20075;-83
2022/04/12 06:10:01;;;;;;;12.80;7.90;;;;;;;;;;5061113;28;20068;-84
2022/04/12 06:12:27;;;;;;;14.98;8.07;;;;;;;;;;5045813;28;20036;-84
2022/04/12 06:14:54;;;;;;;14.00;7.45;;;;;;;;;;5034811;28;20112;-83
2022/04/12 06:17:20;;;;;;;12.57;8.13;;;;;;;;;;5037126;28;20021;-83
2022/04/12 06:19:46;;;;;;;12.60;7.60;;;;;;;;;;5051758;28;20032;-84
2022/04/12 06:22:12;;;;;;;14.45;8.27;;;;;;;;;;5046457;28;20041;-84
2022/04/12 06:24:39;;;;;;;14.65;7.93;;;;;;;;;;5035750;28;20029;-83
2022/04/12 06:27:05;;;;;;;13.45;8.38;;;;;;;;;;5035443;28;20037;-84
2022/04/12 06:29:33;;;;;;;16.10;8.55;;;;;;;;;;5042909;28;20441;-84
2022/04/12 06:32:00;;;;;;;14.25;8.60;;;;;;;;;;5041834;28;20128;-82
2022/04/12 06:34:26;;;;;;;18.23;8.95;;;;;;;;;;5038047;28;20457;-83
2022/04/12 06:36:52;;;;;;;13.02;8.55;;;;;;;;;;5037556;28;20400;-84
2022/04/12 06:39:18;;;;;;;13.02;8.80;;;;;;;;;;5035749;28;20025;-84
2022/04/12 06:41:44;;;;;;;13.50;8.25;;;;;;;;;;5041831;28;20025;-82
2022/04/12 06:44:10;;;;;;;13.48;7.90;;;;;;;;;;5055751;28;20029;-82
2022/04/12 06:46:36;;;;;;;11.65;7.60;;;;;;;;;;5041098;28;20053;-82
2022/04/12 06:49:02;;;;;;;12.30;7.50;;;;;;;;;;5036465;28;20032;-81
2022/04/12 06:51:28;;;;;;;11.20;7.60;;;;;;;;;;5040805;28;20028;-81
2022/04/12 06:53:54;;;;;;;17.30;7.97;;;;;;;;;;5041465;28;20423;-81
2022/04/12 06:56:20;;;;;;;12.80;7.72;;;;;;;;;;5040223;28;20021;-82
2022/04/12 06:58:46;;;;;;;11.10;7.35;;;;;;;;;;5049276;28;20037;-82
2022/04/12 07:01:12;;;;;;;12.23;7.10;;;;;;;;;;5049231;28;20029;-81
2022/04/12 07:03:38;;;;;;;14.25;8.15;;;;;;;;;;5036683;28;20033;-81
2022/04/12 07:06:04;;;;;;;15.23;7.88;;;;;;;;;;5038375;28;20033;-84
2022/04/12 07:08:30;;;;;;;10.75;7.38;;;;;;;;;;5034824;28;20051;-82
2022/04/12 07:10:56;;;;;;;11.15;7.95;;;;;;;;;;5035724;28;20029;-84
2022/04/12 07:13:23;;;;;;;13.20;7.50;;;;;;;;;;5037642;28;20112;-83
2022/04/12 07:15:49;;;;;;;12.75;7.65;;;;;;;;;;5039279;28;20328;-83
2022/04/12 07:18:15;;;;;;;13.48;7.43;;;;;;;;;;5035579;28;20336;-82
2022/04/12 07:20:41;;;;;;;12.52;7.57;;;;;;;;;;5052702;28;20056;-83
2022/04/12 07:23:07;;;;;;;12.98;7.05;;;;;;;;;;5041102;28;20479;-84
2022/04/12 07:25:33;;;;;;;12.48;7.80;;;;;;;;;;5047070;28;20036;-82
2022/04/12 07:27:59;;;;;;;14.02;8.57;;;;;;;;;;5042911;28;20052;-84
2022/04/12 07:30:25;;;;;;;11.90;7.53;;;;;;;;;;5048076;28;20029;-83
2022/04/12 07:32:51;;;;;;;12.25;8.23;;;;;;;;;;5035501;28;20040;-83
2022/04/12 07:35:17;;;;;;;12.77;8.38;;;;;;;;;;5053535;28;20466;-84
2022/04/12 07:37:43;;;;;;;14.88;8.52;;;;;;;;;;5048298;28;20041;-83
2022/04/12 07:40:10;;;;;;;12.27;8.13;;;;;;;;;;5040522;28;20057;-82
2022/04/12 07:42:36;;;;;;;12.70;8.13;;;;;;;;;;5043044;28;20033;-83
2022/04/12 07:45:02;;;;;;;11.32;7.57;;;;;;;;;;5030646;28;20117;-84
2022/04/12 07:47:28;;;;;;;13.80;7.78;;;;;;;;;;5039696;28;20029;-83
2022/04/12 07:49:54;;;;;;;14.82;8.25;;;;;;;;;;5038256;28;20080;-84
2022/04/12 07:52:20;;;;;;;15.23;7.90;;;;;;;;;;5039530;28;20025;-84
2022/04/12 07:54:46;;;;;;;13.40;8.00;;;;;;;;;;5046493;28;20032;-83
2022/04/12 07:57:12;;;;;;;15.90;8.10;;;;;;;;;;5041298;28;20017;-83
2022/04/12 07:59:38;;;;;;;12.43;8.60;;;;;;;;;;5054658;28;20112;-84
2022/04/12 08:02:05;;;;;;;12.27;8.15;;;;;;;;;;5040545;28;20531;-83
2022/04/12 08:04:31;;;;;;;13.57;8.75;;;;;;;;;;5041733;28;20052;-83
2022/04/12 08:06:57;;;;;;;11.10;7.45;;;;;;;;;;5042835;28;20041;-83
2022/04/12 08:09:23;;;;;;;14.95;8.23;;;;;;;;;;5054819;28;20044;-84
2022/04/12 08:11:49;;;;;;;13.48;8.43;;;;;;;;;;5042350;28;20028;-83
2022/04/12 08:14:15;;;;;;;15.77;8.73;;;;;;;;;;5056221;28;20033;-82
2022/04/12 08:16:41;;;;;;;12.00;7.63;;;;;;;;;;5040441;28;20515;-84
2022/04/12 08:19:07;;;;;;;12.27;8.15;;;;;;;;;;5057619;28;20048;-83
2022/04/12 08:21:37;;;;;;;12.65;8.20;;;;;;;;;;5040346;28;20025;-83
2022/04/12 08:24:03;;;;;;;12.25;7.97;;;;;;;;;;5052968;28;20029;-83
2022/04/12 08:26:30;;;;;;;14.20;7.75;;;;;;;;;;5038846;28;20032;-83
2022/04/12 08:28:56;;;;;;;12.77;8.07;;;;;;;;;;5037933;28;20033;-84
2022/04/12 08:31:22;;;;;;;14.77;7.55;;;;;;;;;;5040204;28;20053;-85
2022/04/12 08:33:49;;;;;;;12.98;7.68;;;;;;;;;;5052809;28;20111;-85
2022/04/12 08:36:16;;;;;;;12.55;7.32;;;;;;;;;;5044926;28;20028;-86
2022/04/12 08:38:43;;;;;;;12.02;7.13;;;;;;;;;;5049146;28;21443;-85
2022/04/12 08:41:11;;;;;;;11.77;6.50;;;;;;;;;;5040725;28;20025;-85
2022/04/12 08:43:38;;;;;;;11.25;6.93;;;;;;;;;;5039517;28;20021;-86
2022/04/12 08:46:06;;;;;;;10.98;5.60;;;;;;;;;;5039683;28;20029;-85
2022/04/12 08:48:32;;;;;;;15.43;7.93;;;;;;;;;;5039853;28;20022;-85
2022/04/12 08:50:58;;;;;;;9.93;6.38;;;;;;;;;;5038539;28;20033;-84
2022/04/12 08:53:24;;;;;;;11.48;6.55;;;;;;;;;;5045553;28;20021;-85
2022/04/12 08:55:51;;;;;;;11.10;6.70;;;;;;;;;;5039845;28;20025;-85
2022/04/12 08:58:17;;;;;;;9.77;5.82;;;;;;;;;;5038152;28;20033;-85
2022/04/12 09:00:43;;;;;;;12.07;6.88;;;;;;;;;;5040044;28;20116;-83
2022/04/12 09:03:13;;;;;;;8.88;6.03;;;;;;;;;;5037591;28;20029;-83
2022/04/12 09:05:40;;;;;;;10.90;6.72;;;;;;;;;;5052650;28;20030;-86
2022/04/12 09:08:22;;;;;;;11.23;6.40;;;;;;;;;;5040630;28;20041;-84
2022/04/12 09:10:55;;;;;;;9.57;6.97;;;;;;;;;;5046235;28;20436;-84
2022/04/12 09:13:21;;;;;;;;;;;;;;;;;;5050825;28;20017;-83
2022/04/12 09:15:47;;;;;;;10.65;7.00;;;;;;;;;;5047560;28;19979;-84
2022/04/12 09:18:13;;;;;;;11.68;6.85;;;;;;;;;;5051538;28;20032;-84
2022/04/12 09:20:41;;;;;;;12.35;7.22;;;;;;;;;;5050404;28;20368;-83
2022/04/12 09:23:17;;;;;;;14.00;7.13;;;;;;;;;;5034571;28;20476;-84
2022/04/12 09:25:53;;;;;;;10.77;6.18;;;;;;;;;;5026029;28;20022;-85
2022/04/12 09:28:20;;;;;;;11.68;7.40;;;;;;;;;;5026252;28;20516;-85
2022/04/12 09:30:46;;;;;;;10.98;6.63;;;;;;;;;;5037095;28;20056;-83
2022/04/12 09:33:12;;;;;;;10.90;6.78;;;;;;;;;;5045872;28;20034;-84
2022/04/12 09:35:38;;;;;;;10.57;7.32;;;;;;;;;;5041469;28;20107;-84
2022/04/12 09:38:04;;;;;;;10.13;6.50;;;;;;;;;;5037808;28;20136;-82
2022/04/12 09:40:30;;;;;;;10.95;8.15;;;;;;;;;;5054098;28;20029;-85
2022/04/12 09:43:00;;;;;;;11.75;8.02;;;;;;;;;;5043291;28;20118;-84
2022/04/12 09:45:30;;;;;;;11.07;7.50;;;;;;;;;;5057937;28;20124;-83
2022/04/12 09:47:57;;;;;;;11.18;7.07;;;;;;;;;;5050011;28;20021;-84
2022/04/12 09:50:24;;;;;;;13.13;6.80;;;;;;;;;;5030462;28;20077;-86
2022/04/12 09:52:57;;;;;;;11.90;7.38;;;;;;;;;;5039569;28;20060;-84
2022/04/12 09:55:33;;;;;;;11.43;6.80;;;;;;;;;;5045805;28;20097;-85
2022/04/12 09:57:59;;;;;;;11.13;7.30;;;;;;;;;;5017099;28;20100;-84
2022/04/12 10:00:25;;;;;;;10.65;6.70;;;;;;;;;;5033584;28;20558;-83
2022/04/12 10:02:51;;;;;;;10.27;7.00;;;;;;;;;;5052342;28;20074;-83
2022/04/12 10:05:20;;;;;;;10.25;6.72;;;;;;;;;;5050955;28;20017;-84
2022/04/12 10:07:46;;;;;;;11.50;7.43;;;;;;;;;;5036154;28;20554;-85
2022/04/12 10:10:14;;;;;;;9.82;6.72;;;;;;;;;;5037844;28;20047;-84
2022/04/12 10:12:40;;;;;;;11.32;6.47;;;;;;;;;;5040594;28;20022;-83
2022/04/12 10:15:07;;;;;;;12.02;7.03;;;;;;;;;;5035921;28;20025;-85
2022/04/12 10:17:35;;;;;;;10.02;6.00;;;;;;;;;;5035950;28;20048;-85
2022/04/12 10:20:02;;;;;;;9.68;6.35;;;;;;;;;;5053058;28;20029;-83
2022/04/12 10:22:28;;;;;;;11.38;6.68;;;;;;;;;;5052580;28;20247;-85
2022/04/12 10:24:56;;;;;;;10.45;6.07;;;;;;;;;;5044448;28;20348;-83
2022/04/12 10:27:22;;;;;;;13.02;6.05;;;;;;;;;;5040727;28;20106;-83
2022/04/12 10:30:11;;;;;;;10.15;6.40;;;;;;;;;;5032545;28;20081;-85
2022/04/12 10:32:37;;;;;;;11.55;6.45;;;;;;;;;;5032912;28;20089;-83
2022/04/12 10:35:03;;;;;;;9.30;6.45;;;;;;;;;;5027268;28;20062;-83
2022/04/12 10:37:29;;;;;;;9.50;6.55;;;;;;;;;;5031705;28;20450;-83
2022/04/12 10:40:05;;;;;;;10.70;7.35;;;;;;;;;;5041250;28;20030;-82
2022/04/12 10:42:33;;;;;;;9.85;6.40;;;;;;;;;;5043617;28;20245;-84
2022/04/12 10:45:01;;;;;;;10.88;7.22;;;;;;;;;;5057133;28;20055;-84
2022/04/12 10:47:32;;;;;;;9.52;6.55;;;;;;;;;;5049889;28;20040;-84
2022/04/12 10:49:59;;;;;;;13.25;7.60;;;;;;;;;;5048834;28;20040;-84
2022/04/12 10:52:52;;;;;;;11.40;7.85;;;;;;;;;;5055958;28;20423;-83
2022/04/12 10:55:23;;;;;;;10.27;6.50;;;;;;;;;;5050515;28;20560;-83
2022/04/12 10:57:50;;;;;;;9.43;6.97;;;;;;;;;;5048692;28;20424;-84
2022/04/12 11:00:20;;;;;;;10.68;7.70;;;;;;;;;;5037756;28;20093;-83
2022/04/12 11:02:52;;;;;;;10.73;6.72;;;;;;;;;;5044130;28;20100;-84
2022/04/12 11:05:33;;;;;;;11.57;7.30;;;;;;;;;;5043304;28;20150;-83
2022/04/12 11:07:59;;;;;;;10.70;6.90;;;;;;;;;;5043850;28;20113;-84
2022/04/12 11:10:26;;;;;;;12.80;7.63;;;;;;;;;;5039657;28;20034;-84
2022/04/12 11:13:04;;;;;;;10.60;7.55;;;;;;;;;;5054427;28;20025;-84
2022/04/12 11:15:31;;;;;;;12.52;7.47;;;;;;;;;;5031559;28;20014;-84
2022/04/12 11:18:06;;;;;;;11.15;7.10;;;;;;;;;;5035947;28;20080;-83
2022/04/12 11:20:33;;;;;;;12.43;7.85;;;;;;;;;;5041613;28;20515;-84
2022/04/12 11:22:59;;;;;;;11.45;7.53;;;;;;;;;;5034638;28;20033;-84
2022/04/12 11:25:29;;;;;;;11.45;7.80;;;;;;;;;;5055904;28;20107;-83
2022/04/12 11:27:58;;;;;;;15.05;7.50;;;;;;;;;;5025939;28;20084;-83
2022/04/12 11:30:25;;;;;;;13.25;8.02;;;;;;;;;;5049971;28;20335;-84
2022/04/12 11:32:54;;;;;;;11.20;7.68;;;;;;;;;;5053947;28;20120;-83
2022/04/12 11:35:20;;;;;;;12.43;7.97;;;;;;;;;;5057786;28;20483;-84
2022/04/12 11:37:47;;;;;;;11.02;7.60;;;;;;;;;;5044772;28;20422;-84
2022/04/12 11:40:13;;;;;;;13.38;8.35;;;;;;;;;;5047541;28;20128;-84
2022/04/12 11:42:39;;;;;;;12.55;7.15;;;;;;;;;;5047078;28;20069;-83
2022/04/12 11:45:05;;;;;;;10.32;7.68;;;;;;;;;;5050533;28;20483;-84
2022/04/12 11:47:38;;;;;;;11.68;6.93;;;;;;;;;;5045064;28;20035;-82
2022/04/12 11:50:13;;;;;;;13.40;8.43;;;;;;;;;;5049375;28;20025;-84
2022/04/12 11:52:40;;;;;;;13.63;7.47;;;;;;;;;;5056600;28;20029;-82
2022/04/12 11:55:06;;;;;;;10.02;7.15;;;;;;;;;;5051909;28;20044;-84
2022/04/12 11:57:32;;;;;;;11.70;7.13;;;;;;;;;;5035867;28;20041;-84
2022/04/12 11:59:59;;;;;;;10.93;6.97;;;;;;;;;;5042776;28;20079;-84
2022/04/12 12:02:26;;;;;;;11.55;7.28;;;;;;;;;;5043335;28;20145;-84
2022/04/12 12:05:03;;;;;;;10.15;6.93;;;;;;;;;;5032069;28;20029;-84
2022/04/12 12:07:30;;;;;;;9.50;6.72;;;;;;;;;;5039290;28;20134;-85
2022/04/12 12:10:02;;;;;;;12.10;7.25;;;;;;;;;;5060266;28;20071;-84
2022/04/12 12:12:32;;;;;;;10.05;6.43;;;;;;;;;;5062555;28;20522;-82
2022/04/12 12:14:58;;;;;;;11.32;6.30;;;;;;;;;;5050818;28;20067;-85
2022/04/12 12:17:28;;;;;;;11.15;7.20;;;;;;;;;;5061729;28;20542;-84
2022/04/12 12:19:54;;;;;;;10.55;5.97;;;;;;;;;;5064970;28;20070;-83
2022/04/12 12:22:20;;;;;;;10.55;6.65;;;;;;;;;;5027894;28;20025;-83
2022/04/12 12:24:50;;;;;;;10.10;6.70;;;;;;;;;;5044566;28;20048;-84
2022/04/12 12:27:25;;;;;;;12.40;7.53;;;;;;;;;;5030596;28;20033;-84
2022/04/12 12:29:51;;;;;;;9.45;6.43;;;;;;;;;;5037321;28;20022;-83
2022/04/12 12:32:18;;;;;;;11.60;6.70;;;;;;;;;;5042238;28;20036;-84
2022/04/12 12:34:45;;;;;;;10.63;6.55;;;;;;;;;;5041652;28;20103;-84
2022/04/12 12:37:11;;;;;;;10.35;6.40;;;;;;;;;;5035728;28;20434;-84
2022/04/12 12:39:40;;;;;;;10.80;7.10;;;;;;;;;;5061502;28;20029;-84
2022/04/12 12:42:07;;;;;;;13.63;8.00;;;;;;;;;;5029558;28;20141;-85
2022/04/12 12:44:42;;;;;;;12.30;6.72;;;;;;;;;;5053583;28;20064;-84
2022/04/12 12:47:11;;;;;;;9.57;6.13;;;;;;;;;;5045314;28;20037;-83
2022/04/12 12:49:38;;;;;;;11.10;6.38;;;;;;;;;;5045646;28;20036;-84
2022/04/12 12:52:04;;;;;;;9.80;5.88;;;;;;;;;;5040249;28;20036;-82
2022/04/12 12:54:30;;;;;;;12.55;6.95;;;;;;;;;;5026605;28;20182;-84
2022/04/12 12:56:56;;;;;;;8.85;5.95;;;;;;;;;;5032988;28;20079;-85
2022/04/12 12:59:29;;;;;;;11.43;6.03;;;;;;;;;;5064341;28;20045;-84
2022/04/12 13:01:56;;;;;;;10.68;6.05;;;;;;;;;;5045883;28;20443;-84
2022/04/12 13:04:31;;;;;;;14.40;7.25;;;;;;;;;;5038795;28;20089;-84
2022/04/12 13:07:05;;;;;;;10.05;6.63;;;;;;;;;;5044505;28;20120;-84
2022/04/12 13:09:32;;;;;;;10.82;7.45;;;;;;;;;;5063224;28;20040;-85
2022/04/12 13:11:58;;;;;;;11.55;7.88;;;;;;;;;;5047735;28;20099;-83
2022/04/12 13:14:24;;;;;;;10.60;6.50;;;;;;;;;;5048939;28;20025;-83
2022/04/12 13:16:51;;;;;;;10.82;5.88;;;;;;;;;;5045689;28;20018;-84
2022/04/12 13:19:30;;;;;;;11.70;6.85;;;;;;;;;;5063851;28;20073;-85
2022/04/12 13:21:56;;;;;;;10.82;6.65;;;;;;;;;;5055137;28;20021;-84
2022/04/12 13:24:26;;;;;;;11.18;6.78;;;;;;;;;;5061106;28;20025;-84
2022/04/12 13:26:54;;;;;;;11.10;6.68;;;;;;;;;;5044362;28;20025;-85
2022/04/12 13:29:20;;;;;;;9.93;6.30;;;;;;;;;;5043738;28;20036;-85
2022/04/12 13:31:46;;;;;;;11.55;6.53;;;;;;;;;;5045533;28;20022;-83
2022/04/12 13:34:13;;;;;;;11.30;6.07;;;;;;;;;;5062060;28;20082;-83
2022/04/12 13:36:39;;;;;;;11.57;7.13;;;;;;;;;;5063507;28;20021;-84
2022/04/12 13:39:05;;;;;;;10.38;6.22;;;;;;;;;;5064526;28;20163;-83
2022/04/12 13:41:31;;;;;;;11.25;7.18;;;;;;;;;;5066635;28;20029;-84
2022/04/12 13:43:57;;;;;;;11.55;6.60;;;;;;;;;;5064615;28;20037;-84
2022/04/12 13:46:23;;;;;;;12.73;6.07;;;;;;;;;;5063902;28;20063;-84
2022/04/12 13:48:50;;;;;;;9.95;6.28;;;;;;;;;;5048363;28;20029;-85
2022/04/12 13:51:16;;;;;;;9.88;6.25;;;;;;;;;;5041579;28;20033;-83
2022/04/12 13:53:42;;;;;;;8.82;5.72;;;;;;;;;;5043956;28;20076;-83
2022/04/12 13:56:08;;;;;;;9.80;5.80;;;;;;;;;;5053320;28;20053;-84
2022/04/12 13:58:34;;;;;;;10.23;5.88;;;;;;;;;;5052768;28;20096;-85
2022/04/12 14:01:00;;;;;;;10.30;5.72;;;;;;;;;;5054191;28;20083;-83
2022/04/12 14:03:27;;;;;;;10.57;5.78;;;;;;;;;;5044062;28;20031;-85
2022/04/12 14:05:53;;;;;;;11.15;5.80;;;;;;;;;;5062691;28;20029;-84
2022/04/12 14:08:19;;;;;;;11.85;6.32;;;;;;;;;;5058391;28;20122;-83
2022/04/12 14:10:45;;;;;;;11.00;6.05;;;;;;;;;;5045306;28;20061;-83
2022/04/12 14:13:12;;;;;;;9.43;6.03;;;;;;;;;;5065096;28;20107;-84
2022/04/12 14:15:38;;;;;;;12.18;6.55;;;;;;;;;;5058169;28;20045;-84
2022/04/12 14:18:04;;;;;;;11.90;5.88;;;;;;;;;;5054683;28;20052;-84
2022/04/12 14:20:30;;;;;;;12.30;6.20;;;;;;;;;;5031236;28;20160;-84
2022/04/12 14:22:56;;;;;;;11.18;5.93;;;;;;;;;;5041314;28;20028;-85
2022/04/12 14:25:23;;;;;;;11.52;6.55;;;;;;;;;;5040616;28;20037;-84
2022/04/12 14:27:49;;;;;;;9.82;6.15;;;;;;;;;;5041273;28;20044;-84
2022/04/12 14:30:15;;;;;;;10.65;5.95;;;;;;;;;;5039822;28;20062;-83
2022/04/12 14:32:41;;;;;;;14.38;6.38;;;;;;;;;;5043343;28;20032;-84
2022/04/12 14:35:09;;;;;;;9.35;5.88;;;;;;;;;;5061807;28;20025;-83